createdAt,value
2018-01-28T00:00:04.540Z,7.38
2018-01-28T00:01:04.559Z,7.48
2018-01-28T00:02:04.571Z,7.35
2018-01-28T00:03:04.586Z,7.36
2018-01-28T00:04:04.598Z,7.31
2018-01-28T00:05:04.612Z,7.35
2018-01-28T00:06:04.627Z,7.33
2018-01-28T00:07:04.641Z,7.45
2018-01-28T00:08:04.655Z,7.38
2018-01-28T00:09:04.670Z,7.38
2018-01-28T00:10:04.683Z,7.40
2018-01-28T00:11:04.698Z,7.54
2018-01-28T00:12:04.713Z,7.18
2018-01-28T00:13:04.729Z,7.13
2018-01-28T00:14:04.740Z,7.36
2018-01-28T00:15:04.754Z,7.42
2018-01-28T00:16:04.785Z,7.40
2018-01-28T00:17:04.785Z,7.38
2018-01-28T00:18:04.798Z,7.35
2018-01-28T00:19:04.815Z,7.43
2018-01-28T00:20:04.832Z,7.45
2018-01-28T00:21:04.843Z,7.36
2018-01-28T00:22:04.852Z,7.35
2018-01-28T00:23:04.868Z,7.36
2018-01-28T00:24:04.882Z,7.45
2018-01-28T00:25:04.898Z,7.51
2018-01-28T00:26:04.913Z,7.56
2018-01-28T00:27:04.926Z,7.31
2018-01-28T00:28:04.941Z,7.33
2018-01-28T00:29:04.955Z,7.36
2018-01-28T00:30:04.971Z,7.32
2018-01-28T00:31:04.983Z,7.42
2018-01-28T00:32:04.997Z,7.33
2018-01-28T00:33:05.013Z,7.18
2018-01-28T00:34:05.027Z,6.93
2018-01-28T00:35:05.039Z,7.02
2018-01-28T00:36:05.058Z,7.11
2018-01-28T00:37:05.069Z,7.36
2018-01-28T00:38:05.086Z,7.31
2018-01-28T00:39:05.100Z,7.29
2018-01-28T00:40:05.112Z,7.36
2018-01-28T00:41:05.136Z,7.47
2018-01-28T00:42:05.143Z,7.45
2018-01-28T00:43:05.154Z,7.43
2018-01-28T00:44:05.175Z,7.48
2018-01-28T00:45:05.186Z,7.50
2018-01-28T00:46:05.203Z,7.67
2018-01-28T00:47:05.214Z,7.42
2018-01-28T00:48:05.229Z,7.15
2018-01-28T00:49:05.245Z,7.25
2018-01-28T00:50:05.260Z,7.38
2018-01-28T00:51:05.272Z,7.32
2018-01-28T00:52:05.282Z,7.21
2018-01-28T00:53:05.298Z,7.38
2018-01-28T00:54:05.319Z,7.21
2018-01-28T00:55:05.328Z,7.17
2018-01-28T00:56:05.344Z,7.05
2018-01-28T00:57:05.358Z,6.97
2018-01-28T00:58:05.378Z,7.11
2018-01-28T00:59:05.386Z,7.15
2018-01-28T01:00:05.399Z,7.14
2018-01-28T01:01:05.423Z,7.21
2018-01-28T01:02:05.428Z,7.18
2018-01-28T01:03:05.445Z,7.24
2018-01-28T01:04:05.462Z,7.33
2018-01-28T01:05:05.471Z,7.20
2018-01-28T01:06:05.489Z,7.14
2018-01-28T01:07:05.501Z,7.29
2018-01-28T01:08:05.514Z,7.25
2018-01-28T01:09:05.530Z,7.13
2018-01-28T01:10:05.543Z,7.18
2018-01-28T01:11:05.557Z,7.18
2018-01-28T01:12:05.574Z,7.29
2018-01-28T01:13:05.587Z,7.35
2018-01-28T01:14:05.599Z,7.33
2018-01-28T01:15:05.612Z,7.32
2018-01-28T01:16:05.632Z,7.36
2018-01-28T01:17:05.642Z,7.33
2018-01-28T01:18:05.656Z,7.38
2018-01-28T01:19:05.674Z,7.29
2018-01-28T01:20:05.685Z,7.39
2018-01-28T01:21:05.698Z,7.36
2018-01-28T01:22:05.715Z,7.50
2018-01-28T01:23:05.733Z,7.47
2018-01-28T01:24:05.749Z,7.40
2018-01-28T01:25:05.757Z,7.47
2018-01-28T01:26:05.773Z,7.45
2018-01-28T01:27:05.785Z,7.45
2018-01-28T01:28:05.799Z,7.42
2018-01-28T01:29:05.816Z,7.33
2018-01-28T01:30:05.829Z,7.36
2018-01-28T01:31:05.843Z,7.48
2018-01-28T01:32:05.855Z,7.25
2018-01-28T01:33:05.874Z,7.47
2018-01-28T01:34:05.889Z,7.33
2018-01-28T01:35:05.902Z,7.58
2018-01-28T01:36:05.914Z,7.51
2018-01-28T01:37:05.928Z,7.47
2018-01-28T01:38:05.945Z,7.47
2018-01-28T01:39:05.959Z,7.40
2018-01-28T01:40:05.976Z,7.42
2018-01-28T01:41:05.988Z,7.18
2018-01-28T01:42:06.003Z,7.25
2018-01-28T01:43:06.015Z,7.02
2018-01-28T01:44:06.031Z,7.14
2018-01-28T01:45:06.042Z,7.17
2018-01-28T01:46:06.058Z,7.06
2018-01-28T01:47:06.073Z,6.97
2018-01-28T01:48:06.088Z,6.77
2018-01-28T01:49:06.103Z,6.75
2018-01-28T01:50:06.118Z,6.93
2018-01-28T01:51:06.133Z,7.05
2018-01-28T01:52:06.146Z,7.14
2018-01-28T01:53:06.157Z,7.36
2018-01-28T01:54:06.174Z,7.18
2018-01-28T01:55:06.187Z,7.25
2018-01-28T01:56:06.203Z,7.28
2018-01-28T01:57:06.217Z,7.21
2018-01-28T01:58:06.232Z,7.29
2018-01-28T01:59:06.245Z,7.25
2018-01-28T02:00:06.260Z,7.31
2018-01-28T02:01:06.277Z,7.23
2018-01-28T02:02:06.287Z,7.17
2018-01-28T02:03:06.301Z,7.35
2018-01-28T02:04:06.316Z,7.33
2018-01-28T02:05:06.331Z,7.32
2018-01-28T02:06:06.345Z,7.35
2018-01-28T02:07:06.361Z,7.56
2018-01-28T02:08:06.372Z,7.53
2018-01-28T02:09:06.389Z,7.50
2018-01-28T02:10:06.420Z,7.53
2018-01-28T02:11:06.420Z,7.47
2018-01-28T02:12:06.431Z,7.43
2018-01-28T02:13:06.446Z,7.35
2018-01-28T02:14:06.463Z,7.38
2018-01-28T02:15:06.474Z,7.70
2018-01-28T02:16:06.487Z,7.80
2018-01-28T02:17:06.503Z,7.82
2018-01-28T02:18:06.519Z,7.66
2018-01-28T02:19:06.531Z,7.82
2018-01-28T02:20:06.544Z,7.45
2018-01-28T02:21:06.556Z,7.56
2018-01-28T02:22:06.576Z,7.70
2018-01-28T02:23:06.592Z,7.51
2018-01-28T02:24:06.603Z,7.58
2018-01-28T02:25:06.618Z,7.50
2018-01-28T02:26:06.631Z,7.76
2018-01-28T02:27:06.647Z,7.61
2018-01-28T02:28:06.660Z,7.51
2018-01-28T02:29:06.676Z,7.67
2018-01-28T02:30:06.691Z,7.70
2018-01-28T02:31:06.705Z,7.45
2018-01-28T02:32:06.720Z,7.60
2018-01-28T02:33:06.735Z,7.82
2018-01-28T02:34:06.748Z,7.85
2018-01-28T02:35:06.767Z,7.79
2018-01-28T02:36:06.774Z,7.77
2018-01-28T02:37:06.797Z,7.53
2018-01-28T02:38:06.804Z,7.69
2018-01-28T02:39:06.822Z,7.76
2018-01-28T02:40:06.836Z,7.66
2018-01-28T02:41:06.849Z,7.79
2018-01-28T02:42:06.862Z,7.80
2018-01-28T02:43:06.884Z,7.80
2018-01-28T02:44:06.895Z,7.76
2018-01-28T02:45:06.909Z,7.88
2018-01-28T02:46:06.919Z,7.79
2018-01-28T02:47:06.937Z,7.94
2018-01-28T02:48:06.953Z,7.91
2018-01-28T02:49:06.972Z,7.85
2018-01-28T02:50:06.990Z,7.83
2018-01-28T02:51:06.995Z,7.79
2018-01-28T02:52:07.012Z,7.82
2018-01-28T02:53:07.022Z,7.94
2018-01-28T02:54:07.040Z,7.93
2018-01-28T02:55:07.050Z,7.79
2018-01-28T02:56:07.067Z,7.69
2018-01-28T02:57:07.081Z,7.79
2018-01-28T02:58:07.095Z,7.85
2018-01-28T02:59:07.110Z,7.82
2018-01-28T03:00:07.124Z,7.60
2018-01-28T03:01:07.139Z,7.48
2018-01-28T03:02:07.160Z,7.63
2018-01-28T03:03:07.168Z,7.67
2018-01-28T03:04:07.181Z,7.70
2018-01-28T03:05:07.199Z,7.63
2018-01-28T03:06:07.214Z,7.58
2018-01-28T03:07:07.226Z,7.42
2018-01-28T03:08:07.247Z,7.54
2018-01-28T03:09:07.256Z,7.66
2018-01-28T03:10:07.269Z,7.85
2018-01-28T03:11:07.286Z,7.94
2018-01-28T03:12:07.299Z,7.94
2018-01-28T03:13:07.312Z,7.66
2018-01-28T03:14:07.326Z,7.50
2018-01-28T03:15:07.342Z,7.54
2018-01-28T03:16:07.360Z,7.58
2018-01-28T03:17:07.374Z,7.66
2018-01-28T03:18:07.391Z,7.50
2018-01-28T03:19:07.403Z,7.67
2018-01-28T03:20:07.417Z,7.75
2018-01-28T03:21:07.476Z,7.88
2018-01-28T03:22:07.446Z,7.87
2018-01-28T03:23:07.459Z,7.80
2018-01-28T03:24:07.475Z,7.66
2018-01-28T03:25:07.489Z,7.53
2018-01-28T03:26:07.501Z,7.61
2018-01-28T03:27:07.519Z,7.47
2018-01-28T03:28:07.534Z,7.35
2018-01-28T03:29:07.552Z,7.54
2018-01-28T03:30:07.566Z,7.56
2018-01-28T03:31:07.575Z,7.50
2018-01-28T03:32:07.593Z,7.54
2018-01-28T03:33:07.605Z,7.51
2018-01-28T03:34:07.628Z,7.67
2018-01-28T03:35:07.635Z,7.91
2018-01-28T03:36:07.648Z,7.83
2018-01-28T03:37:07.664Z,7.77
2018-01-28T03:38:07.678Z,7.94
2018-01-28T03:39:07.693Z,7.88
2018-01-28T03:40:07.704Z,7.58
2018-01-28T03:41:07.722Z,7.63
2018-01-28T03:42:07.736Z,7.48
2018-01-28T03:43:07.748Z,7.35
2018-01-28T03:44:07.764Z,7.53
2018-01-28T03:45:07.779Z,7.60
2018-01-28T03:46:07.794Z,7.82
2018-01-28T03:47:07.809Z,8.01
2018-01-28T03:48:07.824Z,7.98
2018-01-28T03:49:07.838Z,7.80
2018-01-28T03:50:07.909Z,7.72
2018-01-28T03:51:07.863Z,7.90
2018-01-28T03:52:07.878Z,7.87
2018-01-28T03:53:07.901Z,7.61
2018-01-28T03:54:07.931Z,7.67
2018-01-28T03:55:07.922Z,7.66
2018-01-28T03:56:07.936Z,7.83
2018-01-28T03:57:07.954Z,7.87
2018-01-28T03:58:07.966Z,7.91
2018-01-28T03:59:07.985Z,8.05
2018-01-28T04:00:08.002Z,8.01
2018-01-28T04:01:08.012Z,7.94
2018-01-28T04:02:08.026Z,7.67
2018-01-28T04:03:08.040Z,7.82
2018-01-28T04:04:08.059Z,7.93
2018-01-28T04:05:08.068Z,7.91
2018-01-28T04:06:08.086Z,7.70
2018-01-28T04:07:08.099Z,7.61
2018-01-28T04:08:08.113Z,7.83
2018-01-28T04:09:08.127Z,7.53
2018-01-28T04:10:08.145Z,7.75
2018-01-28T04:11:08.159Z,7.79
2018-01-28T04:12:08.170Z,7.67
2018-01-28T04:13:08.188Z,7.51
2018-01-28T04:14:08.202Z,7.69
2018-01-28T04:15:08.212Z,7.66
2018-01-28T04:16:08.230Z,7.77
2018-01-28T04:17:08.245Z,7.77
2018-01-28T04:18:08.259Z,7.61
2018-01-28T04:19:08.273Z,7.79
2018-01-28T04:20:08.295Z,7.70
2018-01-28T04:21:08.303Z,7.66
2018-01-28T04:22:08.316Z,7.69
2018-01-28T04:23:08.330Z,7.50
2018-01-28T04:24:08.343Z,7.51
2018-01-28T04:25:08.362Z,7.66
2018-01-28T04:26:08.374Z,7.80
2018-01-28T04:27:08.390Z,7.85
2018-01-28T04:28:08.404Z,7.93
2018-01-28T04:29:08.423Z,7.94
2018-01-28T04:30:08.432Z,8.00
2018-01-28T04:31:08.449Z,8.01
2018-01-28T04:32:08.461Z,8.00
2018-01-28T04:33:08.477Z,8.00
2018-01-28T04:34:08.490Z,7.85
2018-01-28T04:35:08.505Z,7.90
2018-01-28T04:36:08.521Z,7.94
2018-01-28T04:37:08.536Z,8.01
2018-01-28T04:38:08.548Z,8.13
2018-01-28T04:39:08.561Z,8.15
2018-01-28T04:40:08.580Z,8.18
2018-01-28T04:41:08.594Z,8.15
2018-01-28T04:42:08.610Z,8.10
2018-01-28T04:43:08.625Z,8.19
2018-01-28T04:44:08.639Z,8.20
2018-01-28T04:45:08.650Z,8.27
2018-01-28T04:46:08.663Z,8.20
2018-01-28T04:47:08.680Z,8.15
2018-01-28T04:48:08.695Z,8.10
2018-01-28T04:49:08.709Z,7.90
2018-01-28T04:50:08.721Z,7.95
2018-01-28T04:51:08.737Z,7.95
2018-01-28T04:52:08.755Z,7.88
2018-01-28T04:53:08.769Z,7.93
2018-01-28T04:54:08.783Z,7.93
2018-01-28T04:55:08.795Z,7.98
2018-01-28T04:56:08.814Z,8.05
2018-01-28T04:57:08.829Z,8.01
2018-01-28T04:58:08.845Z,8.06
2018-01-28T04:59:08.857Z,8.09
2018-01-28T05:00:08.871Z,8.15
2018-01-28T05:01:08.886Z,8.20
2018-01-28T05:02:08.898Z,8.33
2018-01-28T05:03:08.913Z,8.38
2018-01-28T05:04:08.928Z,8.48
2018-01-28T05:05:08.943Z,8.49
2018-01-28T05:06:08.958Z,8.48
2018-01-28T05:07:08.973Z,8.41
2018-01-28T05:08:08.990Z,8.31
2018-01-28T05:09:09.004Z,8.20
2018-01-28T05:10:09.015Z,8.23
2018-01-28T05:11:09.036Z,8.18
2018-01-28T05:12:09.048Z,8.18
2018-01-28T05:13:09.062Z,8.31
2018-01-28T05:14:09.105Z,8.36
2018-01-28T05:15:09.091Z,8.33
2018-01-28T05:16:09.110Z,8.23
2018-01-28T05:17:09.121Z,8.30
2018-01-28T05:18:09.135Z,8.30
2018-01-28T05:19:09.149Z,8.34
2018-01-28T05:20:09.169Z,8.19
2018-01-28T05:21:09.180Z,8.15
2018-01-28T05:22:09.191Z,8.31
2018-01-28T05:23:09.212Z,8.31
2018-01-28T05:24:09.228Z,8.31
2018-01-28T05:25:09.239Z,8.16
2018-01-28T05:26:09.256Z,8.15
2018-01-28T05:27:09.268Z,8.24
2018-01-28T05:28:09.313Z,8.19
2018-01-28T05:29:09.298Z,8.16
2018-01-28T05:30:09.311Z,8.03
2018-01-28T05:31:09.324Z,8.12
2018-01-28T05:32:09.339Z,8.12
2018-01-28T05:33:09.354Z,8.15
2018-01-28T05:34:09.371Z,8.26
2018-01-28T05:35:09.386Z,8.20
2018-01-28T05:36:09.399Z,8.15
2018-01-28T05:37:09.414Z,8.19
2018-01-28T05:38:09.427Z,8.20
2018-01-28T05:39:09.445Z,8.15
2018-01-28T05:40:09.458Z,8.36
2018-01-28T05:41:09.474Z,8.37
2018-01-28T05:42:09.489Z,8.42
2018-01-28T05:43:09.502Z,8.42
2018-01-28T05:44:09.518Z,8.36
2018-01-28T05:45:09.534Z,8.23
2018-01-28T05:46:09.546Z,8.28
2018-01-28T05:47:09.563Z,8.48
2018-01-28T05:48:09.576Z,8.66
2018-01-28T05:49:09.591Z,8.70
2018-01-28T05:50:09.605Z,8.70
2018-01-28T05:51:09.621Z,8.55
2018-01-28T05:52:09.635Z,8.58
2018-01-28T05:53:09.650Z,8.37
2018-01-28T05:54:09.666Z,8.41
2018-01-28T05:55:09.678Z,8.53
2018-01-28T05:56:09.697Z,8.38
2018-01-28T05:57:09.710Z,8.42
2018-01-28T05:58:09.723Z,8.28
2018-01-28T05:59:09.742Z,8.45
2018-01-28T06:00:09.755Z,8.45
2018-01-28T06:01:09.771Z,8.48
2018-01-28T06:02:09.783Z,8.52
2018-01-28T06:03:09.842Z,8.49
2018-01-28T06:04:09.816Z,8.52
2018-01-28T06:05:09.831Z,8.64
2018-01-28T06:06:09.874Z,8.53
2018-01-28T06:07:09.858Z,8.33
2018-01-28T06:08:09.876Z,8.36
2018-01-28T06:09:09.888Z,8.34
2018-01-28T06:10:09.901Z,8.45
2018-01-28T06:11:09.917Z,8.41
2018-01-28T06:12:09.932Z,8.64
2018-01-28T06:13:09.998Z,8.58
2018-01-28T06:14:09.963Z,8.61
2018-01-28T06:15:09.975Z,8.45
2018-01-28T06:16:10.045Z,8.56
2018-01-28T06:17:10.007Z,8.63
2018-01-28T06:18:10.024Z,8.67
2018-01-28T06:19:10.036Z,8.66
2018-01-28T06:20:10.051Z,8.74
2018-01-28T06:21:10.068Z,8.58
2018-01-28T06:22:10.079Z,8.45
2018-01-28T06:23:10.097Z,8.33
2018-01-28T06:24:10.127Z,8.31
2018-01-28T06:25:10.125Z,8.30
2018-01-28T06:26:10.138Z,8.33
2018-01-28T06:27:10.157Z,8.19
2018-01-28T06:28:10.170Z,8.16
2018-01-28T06:29:10.186Z,8.31
2018-01-28T06:30:10.199Z,8.24
2018-01-28T06:31:10.218Z,8.45
2018-01-28T06:32:10.229Z,8.63
2018-01-28T06:33:10.243Z,8.55
2018-01-28T06:34:10.258Z,8.58
2018-01-28T06:35:10.273Z,8.49
2018-01-28T06:36:10.289Z,8.67
2018-01-28T06:37:10.303Z,8.70
2018-01-28T06:38:10.318Z,8.73
2018-01-28T06:39:10.334Z,8.76
2018-01-28T06:40:10.347Z,8.73
2018-01-28T06:41:10.363Z,8.70
2018-01-28T06:42:10.377Z,8.63
2018-01-28T06:43:10.394Z,8.76
2018-01-28T06:44:10.409Z,8.66
2018-01-28T06:45:10.423Z,8.52
2018-01-28T06:46:10.435Z,8.51
2018-01-28T06:47:10.451Z,8.66
2018-01-28T06:48:10.481Z,8.52
2018-01-28T06:49:10.483Z,8.37
2018-01-28T06:50:10.500Z,8.34
2018-01-28T06:51:10.514Z,8.46
2018-01-28T06:52:10.528Z,8.33
2018-01-28T06:53:10.543Z,8.42
2018-01-28T06:54:10.559Z,8.48
2018-01-28T06:55:10.573Z,8.52
2018-01-28T06:56:10.590Z,8.30
2018-01-28T06:57:10.605Z,8.45
2018-01-28T06:58:10.617Z,8.44
2018-01-28T06:59:10.631Z,8.46
2018-01-28T07:00:10.646Z,8.45
2018-01-28T07:01:10.660Z,8.52
2018-01-28T07:02:10.675Z,8.46
2018-01-28T07:03:10.695Z,8.53
2018-01-28T07:04:10.705Z,8.42
2018-01-28T07:05:10.721Z,8.36
2018-01-28T07:06:10.735Z,8.55
2018-01-28T07:07:10.752Z,8.48
2018-01-28T07:08:10.766Z,8.56
2018-01-28T07:09:10.786Z,8.58
2018-01-28T07:10:10.796Z,8.52
2018-01-28T07:11:10.809Z,8.60
2018-01-28T07:12:10.827Z,8.63
2018-01-28T07:13:10.840Z,8.53
2018-01-28T07:14:10.855Z,8.48
2018-01-28T07:15:10.871Z,8.51
2018-01-28T07:16:10.888Z,8.48
2018-01-28T07:17:10.898Z,8.58
2018-01-28T07:18:10.915Z,8.45
2018-01-28T07:19:10.929Z,8.44
2018-01-28T07:20:10.945Z,8.42
2018-01-28T07:21:10.959Z,8.53
2018-01-28T07:22:10.973Z,8.37
2018-01-28T07:23:10.987Z,8.42
2018-01-28T07:24:11.004Z,8.49
2018-01-28T07:25:11.019Z,8.53
2018-01-28T07:26:11.033Z,8.64
2018-01-28T07:27:11.047Z,8.66
2018-01-28T07:28:11.064Z,8.84
2018-01-28T07:29:11.077Z,8.85
2018-01-28T07:30:11.092Z,8.94
2018-01-28T07:31:11.108Z,8.97
2018-01-28T07:32:11.123Z,9.02
2018-01-28T07:33:11.140Z,8.82
2018-01-28T07:34:11.152Z,8.71
2018-01-28T07:35:11.168Z,8.67
2018-01-28T07:36:11.187Z,8.63
2018-01-28T07:37:11.198Z,8.74
2018-01-28T07:38:11.217Z,8.66
2018-01-28T07:39:11.229Z,8.67
2018-01-28T07:40:11.242Z,8.71
2018-01-28T07:41:11.261Z,8.89
2018-01-28T07:42:11.272Z,8.99
2018-01-28T07:43:11.287Z,8.70
2018-01-28T07:44:11.303Z,8.66
2018-01-28T07:45:11.320Z,8.70
2018-01-28T07:46:11.336Z,8.85
2018-01-28T07:47:11.355Z,8.92
2018-01-28T07:48:11.366Z,8.94
2018-01-28T07:49:11.384Z,8.79
2018-01-28T07:50:11.392Z,8.85
2018-01-28T07:51:11.409Z,8.87
2018-01-28T07:52:11.424Z,8.78
2018-01-28T07:53:11.442Z,8.84
2018-01-28T07:54:11.453Z,8.92
2018-01-28T07:55:11.470Z,8.97
2018-01-28T07:56:11.489Z,9.08
2018-01-28T07:57:11.498Z,9.19
2018-01-28T07:58:11.511Z,9.13
2018-01-28T07:59:11.530Z,9.19
2018-01-28T08:00:11.591Z,9.21
2018-01-28T08:01:11.561Z,9.10
2018-01-28T08:02:11.572Z,9.19
2018-01-28T08:03:11.586Z,9.03
2018-01-28T08:04:11.605Z,9.04
2018-01-28T08:05:11.618Z,9.10
2018-01-28T08:06:11.638Z,9.13
2018-01-28T08:07:11.685Z,9.06
2018-01-28T08:08:11.668Z,9.08
2018-01-28T08:09:11.682Z,9.06
2018-01-28T08:10:11.703Z,9.08
2018-01-28T08:11:11.715Z,9.23
2018-01-28T08:12:11.826Z,9.23
2018-01-28T08:13:11.754Z,9.39
2018-01-28T08:14:11.761Z,9.18
2018-01-28T08:15:11.774Z,9.10
2018-01-28T08:16:11.798Z,9.10
2018-01-28T08:17:11.822Z,9.18
2018-01-28T08:18:11.817Z,9.16
2018-01-28T08:19:11.833Z,9.25
2018-01-28T08:20:11.848Z,9.21
2018-01-28T08:21:11.863Z,9.16
2018-01-28T08:22:11.878Z,9.06
2018-01-28T08:23:11.894Z,8.99
2018-01-28T08:24:11.938Z,9.14
2018-01-28T08:25:11.926Z,9.26
2018-01-28T08:26:11.955Z,9.26
2018-01-28T08:27:11.967Z,9.36
2018-01-28T08:28:11.970Z,9.36
2018-01-28T08:29:11.985Z,9.41
2018-01-28T08:30:12.005Z,9.32
2018-01-28T08:31:12.016Z,9.37
2018-01-28T08:32:12.034Z,9.40
2018-01-28T08:33:12.048Z,9.31
2018-01-28T08:34:12.064Z,9.50
2018-01-28T08:35:12.078Z,9.46
2018-01-28T08:36:12.098Z,9.37
2018-01-28T08:37:12.112Z,9.34
2018-01-28T08:38:12.126Z,9.55
2018-01-28T08:39:12.145Z,9.51
2018-01-28T08:40:12.158Z,9.37
2018-01-28T08:41:12.176Z,9.36
2018-01-28T08:42:12.184Z,9.51
2018-01-28T08:43:12.207Z,9.64
2018-01-28T08:44:12.216Z,9.68
2018-01-28T08:45:12.232Z,9.72
2018-01-28T08:46:12.247Z,9.46
2018-01-28T08:47:12.264Z,9.28
2018-01-28T08:48:12.282Z,9.25
2018-01-28T08:49:12.295Z,9.39
2018-01-28T08:50:12.309Z,9.41
2018-01-28T08:51:12.324Z,9.44
2018-01-28T08:52:12.339Z,9.50
2018-01-28T08:53:12.359Z,9.56
2018-01-28T08:54:12.373Z,9.47
2018-01-28T08:55:12.390Z,9.28
2018-01-28T08:56:12.404Z,9.32
2018-01-28T08:57:12.419Z,9.31
2018-01-28T08:58:12.439Z,9.22
2018-01-28T08:59:12.445Z,9.21
2018-01-28T09:00:12.463Z,9.25
2018-01-28T09:01:12.482Z,9.36
2018-01-28T09:02:12.496Z,9.47
2018-01-28T09:03:12.508Z,9.59
2018-01-28T09:04:12.525Z,9.47
2018-01-28T09:05:12.544Z,9.18
2018-01-28T09:06:12.554Z,9.32
2018-01-28T09:07:12.575Z,9.34
2018-01-28T09:08:12.591Z,9.40
2018-01-28T09:09:12.599Z,9.62
2018-01-28T09:10:12.619Z,9.56
2018-01-28T09:11:12.636Z,9.58
2018-01-28T09:12:12.651Z,9.32
2018-01-28T09:13:12.663Z,9.39
2018-01-28T09:14:12.677Z,9.55
2018-01-28T09:15:12.693Z,9.48
2018-01-28T09:16:12.709Z,9.48
2018-01-28T09:17:12.728Z,9.64
2018-01-28T09:18:12.739Z,9.72
2018-01-28T09:19:12.757Z,9.66
2018-01-28T09:20:12.769Z,9.54
2018-01-28T09:21:12.788Z,9.64
2018-01-28T09:22:12.801Z,9.55
2018-01-28T09:23:12.817Z,9.46
2018-01-28T09:24:12.833Z,9.50
2018-01-28T09:25:12.850Z,9.50
2018-01-28T09:26:12.861Z,9.32
2018-01-28T09:27:12.889Z,9.40
2018-01-28T09:28:12.894Z,9.40
2018-01-28T09:29:12.910Z,9.40
2018-01-28T09:30:12.929Z,9.50
2018-01-28T09:31:12.940Z,9.44
2018-01-28T09:32:12.954Z,9.58
2018-01-28T09:33:12.972Z,9.55
2018-01-28T09:34:12.986Z,9.61
2018-01-28T09:35:13.003Z,9.58
2018-01-28T09:36:13.021Z,9.55
2018-01-28T09:37:13.037Z,9.54
2018-01-28T09:38:13.051Z,9.73
2018-01-28T09:39:13.065Z,9.48
2018-01-28T09:40:13.082Z,9.62
2018-01-28T09:41:13.098Z,9.86
2018-01-28T09:42:13.111Z,9.91
2018-01-28T09:43:13.130Z,9.83
2018-01-28T09:44:13.143Z,9.64
2018-01-28T09:45:13.160Z,9.59
2018-01-28T09:46:13.186Z,9.51
2018-01-28T09:47:13.189Z,9.43
2018-01-28T09:48:13.206Z,9.41
2018-01-28T09:49:13.223Z,9.44
2018-01-28T09:50:13.237Z,9.69
2018-01-28T09:51:13.251Z,9.73
2018-01-28T09:52:13.268Z,9.91
2018-01-28T09:53:13.297Z,9.99
2018-01-28T09:54:13.297Z,10.02
2018-01-28T09:55:13.316Z,9.73
2018-01-28T09:56:13.330Z,9.80
2018-01-28T09:57:13.345Z,9.91
2018-01-28T09:58:13.360Z,10.02
2018-01-28T09:59:13.378Z,10.04
2018-01-28T10:00:13.399Z,10.15
2018-01-28T10:01:13.407Z,10.13
2018-01-28T10:02:13.422Z,9.92
2018-01-28T10:03:13.438Z,9.86
2018-01-28T10:04:13.454Z,9.87
2018-01-28T10:05:13.471Z,9.97
2018-01-28T10:06:13.486Z,9.82
2018-01-28T10:07:13.500Z,9.98
2018-01-28T10:08:13.519Z,10.07
2018-01-28T10:09:13.530Z,10.09
2018-01-28T10:10:13.548Z,10.02
2018-01-28T10:11:13.563Z,9.80
2018-01-28T10:12:13.580Z,9.86
2018-01-28T10:13:13.599Z,9.86
2018-01-28T10:14:13.666Z,9.72
2018-01-28T10:15:13.625Z,9.87
2018-01-28T10:16:13.640Z,9.91
2018-01-28T10:17:13.656Z,9.94
2018-01-28T10:18:13.686Z,10.01
2018-01-28T10:19:13.690Z,9.99
2018-01-28T10:20:13.703Z,10.01
2018-01-28T10:21:13.720Z,9.91
2018-01-28T10:22:13.769Z,9.98
2018-01-28T10:23:13.752Z,10.02
2018-01-28T10:24:13.776Z,10.09
2018-01-28T10:25:13.781Z,10.20
2018-01-28T10:26:13.798Z,10.05
2018-01-28T10:27:13.819Z,10.15
2018-01-28T10:28:13.830Z,9.92
2018-01-28T10:29:13.844Z,9.86
2018-01-28T10:30:13.862Z,9.92
2018-01-28T10:31:13.886Z,10.01
2018-01-28T10:32:13.893Z,10.02
2018-01-28T10:33:13.907Z,9.95
2018-01-28T10:34:13.921Z,9.98
2018-01-28T10:35:13.942Z,9.99
2018-01-28T10:36:13.960Z,10.02
2018-01-28T10:37:13.969Z,10.09
2018-01-28T10:38:14.044Z,10.05
2018-01-28T10:39:14.022Z,9.91
2018-01-28T10:40:14.017Z,9.79
2018-01-28T10:41:14.030Z,9.92
2018-01-28T10:42:14.050Z,9.95
2018-01-28T10:43:14.078Z,9.89
2018-01-28T10:44:14.083Z,9.92
2018-01-28T10:45:14.095Z,9.84
2018-01-28T10:46:14.108Z,10.09
2018-01-28T10:47:14.232Z,10.20
2018-01-28T10:48:14.146Z,10.19
2018-01-28T10:49:14.162Z,10.17
2018-01-28T10:50:14.177Z,10.28
2018-01-28T10:51:14.210Z,10.28
2018-01-28T10:52:14.217Z,10.30
2018-01-28T10:53:14.225Z,10.16
2018-01-28T10:54:14.238Z,10.13
2018-01-28T10:55:14.260Z,10.10
2018-01-28T10:56:14.270Z,10.25
2018-01-28T10:57:14.294Z,10.23
2018-01-28T10:58:14.301Z,10.13
2018-01-28T10:59:14.316Z,10.26
2018-01-28T11:00:14.334Z,10.35
2018-01-28T11:01:14.351Z,10.44
2018-01-28T11:02:14.364Z,10.42
2018-01-28T11:03:14.382Z,10.28
2018-01-28T11:04:14.402Z,10.33
2018-01-28T11:05:14.413Z,10.25
2018-01-28T11:06:14.429Z,10.33
2018-01-28T11:07:14.442Z,10.30
2018-01-28T11:08:14.460Z,10.25
2018-01-28T11:09:14.475Z,10.37
2018-01-28T11:10:14.496Z,10.49
2018-01-28T11:11:14.510Z,10.59
2018-01-28T11:12:14.523Z,10.69
2018-01-28T11:13:14.540Z,10.79
2018-01-28T11:14:14.558Z,10.49
2018-01-28T11:15:14.631Z,10.35
2018-01-28T11:16:14.587Z,10.22
2018-01-28T11:17:14.603Z,10.26
2018-01-28T11:18:14.622Z,10.26
2018-01-28T11:19:14.646Z,10.28
2018-01-28T11:20:14.655Z,10.31
2018-01-28T11:21:14.676Z,10.42
2018-01-28T11:22:14.684Z,10.40
2018-01-28T11:23:14.696Z,10.30
2018-01-28T11:24:14.717Z,10.40
2018-01-28T11:25:14.731Z,10.38
2018-01-28T11:26:14.746Z,10.51
2018-01-28T11:27:14.761Z,10.56
2018-01-28T11:28:14.796Z,10.46
2018-01-28T11:29:14.797Z,10.42
2018-01-28T11:30:14.812Z,10.40
2018-01-28T11:31:14.829Z,10.42
2018-01-28T11:32:14.841Z,10.54
2018-01-28T11:33:14.860Z,10.40
2018-01-28T11:34:14.873Z,10.49
2018-01-28T11:35:14.890Z,10.40
2018-01-28T11:36:14.905Z,10.35
2018-01-28T11:37:14.927Z,10.38
2018-01-28T11:38:14.936Z,10.57
2018-01-28T11:39:14.953Z,10.57
2018-01-28T11:40:15.125Z,10.64
2018-01-28T11:41:14.987Z,10.68
2018-01-28T11:42:15.046Z,10.56
2018-01-28T11:43:15.019Z,10.48
2018-01-28T11:44:15.035Z,10.60
2018-01-28T11:45:15.055Z,10.57
2018-01-28T11:46:15.069Z,10.61
2018-01-28T11:47:15.082Z,10.81
2018-01-28T11:48:15.101Z,11.08
2018-01-28T11:49:15.117Z,10.92
2018-01-28T11:50:15.135Z,10.93
2018-01-28T11:51:15.145Z,10.67
2018-01-28T11:52:15.165Z,10.61
2018-01-28T11:53:15.189Z,10.59
2018-01-28T11:54:15.198Z,10.81
2018-01-28T11:55:15.213Z,10.75
2018-01-28T11:56:15.231Z,10.89
2018-01-28T11:57:15.243Z,11.05
2018-01-28T11:58:15.408Z,10.82
2018-01-28T11:59:15.280Z,10.84
2018-01-28T12:00:15.295Z,10.60
2018-01-28T12:01:15.319Z,10.86
2018-01-28T12:02:15.322Z,10.94
2018-01-28T12:03:15.338Z,11.11
2018-01-28T12:04:15.365Z,10.89
2018-01-28T12:05:15.414Z,10.74
2018-01-28T12:06:15.390Z,10.68
2018-01-28T12:07:15.409Z,10.68
2018-01-28T12:08:15.421Z,10.82
2018-01-28T12:09:15.437Z,10.79
2018-01-28T12:10:15.452Z,10.99
2018-01-28T12:11:15.470Z,10.87
2018-01-28T12:12:15.486Z,10.93
2018-01-28T12:13:15.500Z,11.05
2018-01-28T12:14:15.517Z,10.99
2018-01-28T12:15:15.533Z,10.87
2018-01-28T12:16:15.556Z,10.72
2018-01-28T12:17:15.572Z,10.75
2018-01-28T12:18:15.583Z,10.78
2018-01-28T12:19:15.597Z,10.75
2018-01-28T12:20:15.621Z,10.92
2018-01-28T12:21:15.637Z,10.76
2018-01-28T12:22:15.657Z,10.76
2018-01-28T12:23:15.663Z,10.90
2018-01-28T12:24:15.678Z,11.05
2018-01-28T12:25:15.720Z,11.07
2018-01-28T12:26:15.713Z,11.10
2018-01-28T12:27:15.732Z,10.97
2018-01-28T12:28:15.746Z,10.96
2018-01-28T12:29:15.763Z,11.00
2018-01-28T12:30:15.775Z,11.12
2018-01-28T12:31:15.798Z,11.10
2018-01-28T12:32:15.812Z,11.15
2018-01-28T12:33:15.826Z,11.27
2018-01-28T12:34:15.841Z,11.41
2018-01-28T12:35:15.857Z,11.40
2018-01-28T12:36:15.879Z,11.51
2018-01-28T12:37:15.896Z,11.50
2018-01-28T12:38:15.914Z,11.54
2018-01-28T12:39:15.928Z,11.43
2018-01-28T12:40:15.942Z,11.29
2018-01-28T12:41:15.958Z,11.41
2018-01-28T12:42:15.985Z,11.33
2018-01-28T12:43:15.992Z,11.41
2018-01-28T12:44:16.008Z,11.52
2018-01-28T12:45:16.030Z,11.62
2018-01-28T12:46:16.041Z,11.68
2018-01-28T12:47:16.056Z,11.52
2018-01-28T12:48:16.079Z,11.40
2018-01-28T12:49:16.092Z,11.51
2018-01-28T12:50:16.123Z,11.59
2018-01-28T12:51:16.134Z,11.51
2018-01-28T12:52:16.143Z,11.72
2018-01-28T12:53:16.159Z,11.73
2018-01-28T12:54:16.174Z,11.84
2018-01-28T12:55:16.193Z,11.70
2018-01-28T12:56:16.229Z,11.59
2018-01-28T12:57:16.229Z,11.54
2018-01-28T12:58:16.240Z,11.50
2018-01-28T12:59:16.260Z,11.32
2018-01-28T13:00:16.276Z,11.41
2018-01-28T13:01:16.297Z,11.45
2018-01-28T13:02:16.310Z,11.44
2018-01-28T13:03:16.325Z,11.63
2018-01-28T13:04:16.343Z,11.55
2018-01-28T13:05:16.360Z,11.44
2018-01-28T13:06:16.378Z,11.44
2018-01-28T13:07:16.393Z,11.51
2018-01-28T13:08:16.426Z,11.48
2018-01-28T13:09:16.437Z,11.41
2018-01-28T13:10:16.495Z,11.44
2018-01-28T13:11:16.458Z,11.48
2018-01-28T13:12:16.478Z,11.36